createdAt,value
2019-03-13T00:00:56.034Z,59.60
2019-03-13T00:03:31.279Z,59.63
2019-03-13T00:06:05.331Z,59.62
2019-03-13T00:08:39.627Z,59.62
2019-03-13T00:11:15.755Z,59.87
2019-03-13T00:13:49.630Z,59.58
2019-03-13T00:16:23.318Z,59.85
2019-03-13T00:18:57.132Z,59.89
2019-03-13T00:21:31.212Z,59.84
2019-03-13T00:24:04.856Z,59.72
2019-03-13T00:26:38.421Z,59.89
2019-03-13T00:29:12.033Z,59.95
2019-03-13T00:31:46.068Z,59.84
2019-03-13T00:34:19.570Z,60.10
2019-03-13T00:36:53.094Z,59.95
2019-03-13T00:39:26.783Z,59.88
2019-03-13T00:42:00.396Z,60.04
2019-03-13T00:44:33.952Z,59.85
2019-03-13T00:47:07.454Z,59.99
2019-03-13T00:49:42.757Z,60.04
2019-03-13T00:52:16.293Z,59.89
2019-03-13T00:54:49.841Z,60.18
2019-03-13T00:57:23.495Z,60.13
2019-03-13T00:59:57.154Z,59.99
2019-03-13T01:02:40.584Z,59.92
2019-03-13T01:05:17.759Z,59.82
2019-03-13T01:07:51.755Z,59.87
2019-03-13T01:10:25.424Z,59.36
2019-03-13T01:13:00.485Z,59.92
2019-03-13T01:15:34.870Z,59.74
2019-03-13T01:18:09.122Z,59.81
2019-03-13T01:20:43.311Z,59.73
2019-03-13T01:23:17.494Z,59.96
2019-03-13T01:25:51.040Z,59.80
2019-03-13T01:28:24.688Z,59.80
2019-03-13T01:31:16.988Z,59.61
2019-03-13T01:33:50.752Z,59.75
2019-03-13T01:36:24.906Z,59.39
2019-03-13T01:38:58.633Z,59.69
2019-03-13T01:41:32.214Z,59.84
2019-03-13T01:44:05.972Z,59.68
2019-03-13T01:46:41.636Z,59.52
2019-03-13T01:49:15.341Z,59.60
2019-03-13T01:51:49.040Z,59.40
2019-03-13T01:54:22.790Z,59.63
2019-03-13T01:56:56.523Z,59.36
2019-03-13T01:59:30.447Z,59.21
2019-03-13T02:02:05.700Z,59.38
2019-03-13T02:04:40.782Z,59.41
2019-03-13T02:07:14.903Z,58.94
2019-03-13T02:09:48.500Z,59.01
2019-03-13T02:12:22.069Z,58.77
2019-03-13T02:14:55.750Z,58.66
2019-03-13T02:17:30.372Z,58.59
2019-03-13T02:20:06.167Z,57.93
2019-03-13T02:22:39.685Z,58.28
2019-03-13T02:25:13.259Z,58.11
2019-03-13T02:27:47.236Z,57.95
2019-03-13T02:30:22.067Z,57.89
2019-03-13T02:32:55.776Z,57.95
2019-03-13T02:35:29.844Z,57.75
2019-03-13T02:38:03.970Z,57.74
2019-03-13T02:40:38.755Z,57.74
2019-03-13T02:43:12.321Z,57.69
2019-03-13T02:45:46.013Z,57.74
2019-03-13T02:48:24.961Z,57.35
2019-03-13T02:50:58.610Z,57.63
2019-03-13T02:53:41.931Z,57.28
2019-03-13T02:56:37.573Z,57.14
2019-03-13T02:59:11.374Z,57.11
2019-03-13T03:02:24.465Z,57.54
2019-03-13T03:04:58.177Z,57.54
2019-03-13T03:07:31.797Z,57.83
2019-03-13T03:10:05.736Z,57.91
2019-03-13T03:12:39.358Z,58.00
2019-03-13T03:15:18.359Z,57.95
2019-03-13T03:17:52.612Z,58.22
2019-03-13T03:20:26.483Z,58.13
2019-03-13T03:23:00.098Z,57.83
2019-03-13T03:25:33.721Z,57.62
2019-03-13T03:28:07.327Z,57.79
2019-03-13T03:30:41.005Z,57.62
2019-03-13T03:33:14.816Z,57.49
2019-03-13T03:35:48.936Z,57.41
2019-03-13T03:38:23.598Z,57.47
2019-03-13T03:40:58.857Z,57.43
2019-03-13T03:43:40.363Z,57.38
2019-03-13T03:46:09.315Z,57.25
2019-03-13T03:48:45.594Z,56.88
2019-03-13T03:51:20.031Z,57.08
2019-03-13T03:53:57.606Z,57.37
2019-03-13T03:56:32.130Z,56.85
2019-03-13T03:59:06.425Z,57.10
2019-03-13T04:01:41.436Z,57.22
2019-03-13T04:04:15.467Z,57.24
2019-03-13T04:06:50.819Z,57.31
2019-03-13T04:09:26.096Z,57.23
2019-03-13T04:11:59.881Z,57.21
2019-03-13T04:14:34.771Z,57.31
2019-03-13T04:17:08.634Z,57.21
2019-03-13T04:19:42.400Z,57.24
2019-03-13T04:22:16.153Z,57.33
2019-03-13T04:24:49.733Z,56.74
2019-03-13T04:27:24.858Z,56.50
2019-03-13T04:29:58.481Z,56.57
2019-03-13T04:32:32.058Z,56.15
2019-03-13T04:35:05.569Z,56.01
2019-03-13T04:37:39.066Z,56.22
2019-03-13T04:40:12.527Z,55.81
2019-03-13T04:42:45.998Z,56.32
2019-03-13T04:45:19.539Z,56.34
2019-03-13T04:47:53.603Z,56.35
2019-03-13T04:50:27.121Z,57.37
2019-03-13T04:53:00.681Z,58.42
2019-03-13T04:55:34.549Z,59.08
2019-03-13T04:58:09.011Z,59.66
2019-03-13T05:00:42.759Z,60.46
2019-03-13T05:03:16.225Z,61.32
2019-03-13T05:06:02.175Z,61.81
2019-03-13T05:08:45.390Z,62.03
2019-03-13T05:11:18.119Z,62.58
2019-03-13T05:13:51.581Z,62.76
2019-03-13T05:16:26.127Z,63.38
2019-03-13T05:18:59.564Z,63.80
2019-03-13T05:21:33.028Z,63.50
2019-03-13T05:24:06.399Z,63.99
2019-03-13T05:26:39.967Z,63.76
2019-03-13T05:29:15.465Z,64.16
2019-03-13T05:31:48.818Z,63.99
2019-03-13T05:34:22.256Z,64.48
2019-03-13T05:36:56.599Z,64.56
2019-03-13T05:39:30.010Z,65.35
2019-03-13T05:42:03.734Z,66.09
2019-03-13T05:44:37.083Z,66.56
2019-03-13T05:47:10.415Z,68.07
2019-03-13T05:49:43.772Z,69.00
2019-03-13T05:52:17.216Z,69.68
2019-03-13T05:54:50.657Z,70.50
2019-03-13T05:57:24.032Z,70.43
2019-03-13T05:59:57.433Z,70.85
2019-03-13T06:02:31.455Z,71.15
2019-03-13T06:05:06.082Z,71.71
2019-03-13T06:07:39.655Z,72.36
2019-03-13T06:10:13.155Z,72.41
2019-03-13T06:12:46.936Z,72.98
2019-03-13T06:15:20.493Z,73.46
2019-03-13T06:17:54.324Z,73.62
2019-03-13T06:20:27.826Z,73.78
2019-03-13T06:23:01.268Z,73.92
2019-03-13T06:25:35.153Z,74.29
2019-03-13T06:28:08.553Z,74.32
2019-03-13T06:30:44.208Z,74.52
2019-03-13T06:33:20.064Z,74.44
2019-03-13T06:35:53.623Z,74.51
2019-03-13T06:38:27.118Z,74.18
2019-03-13T06:41:00.945Z,74.29
2019-03-13T06:43:34.397Z,74.69
2019-03-13T06:46:07.909Z,74.84
2019-03-13T06:48:41.388Z,74.45
2019-03-13T06:51:14.861Z,74.58
2019-03-13T06:53:48.469Z,74.71
2019-03-13T06:56:22.352Z,74.37
2019-03-13T06:59:17.794Z,73.93
2019-03-13T07:02:18.894Z,74.17
2019-03-13T07:05:02.576Z,73.98
2019-03-13T07:08:12.880Z,74.41
2019-03-13T07:11:07.982Z,74.45
2019-03-13T07:13:50.290Z,74.35
2019-03-13T07:16:51.368Z,73.92
2019-03-13T07:19:35.604Z,74.44
2019-03-13T07:22:26.827Z,74.20
2019-03-13T07:25:15.867Z,73.83
2019-03-13T07:27:59.478Z,73.69
2019-03-13T07:30:48.794Z,73.75
2019-03-13T07:33:43.947Z,74.05
2019-03-13T07:36:37.505Z,73.56
2019-03-13T07:39:35.497Z,73.60
2019-03-13T07:42:27.583Z,73.53
2019-03-13T07:45:35.175Z,73.64
2019-03-13T07:48:17.912Z,73.64
2019-03-13T07:51:13.247Z,73.46
2019-03-13T07:54:11.213Z,73.30
2019-03-13T07:57:13.448Z,73.18
2019-03-13T07:59:58.816Z,71.81
2019-03-13T08:02:49.513Z,71.49
2019-03-13T08:05:47.689Z,69.54
2019-03-13T08:08:44.165Z,69.56
2019-03-13T08:11:35.197Z,69.23
2019-03-13T08:14:26.188Z,69.42
2019-03-13T08:17:36.379Z,70.03
2019-03-13T08:20:29.295Z,69.32
2019-03-13T08:23:19.932Z,69.73
2019-03-13T08:26:11.992Z,68.73
2019-03-13T08:29:04.099Z,67.64
2019-03-13T08:31:56.184Z,67.64
2019-03-13T08:34:54.337Z,67.11
2019-03-13T08:37:49.726Z,76.83
2019-03-13T08:40:44.902Z,63.64
2019-03-13T08:43:43.042Z,60.90
2019-03-13T08:46:38.210Z,61.19
2019-03-13T08:49:39.739Z,61.45
2019-03-13T08:52:33.455Z,61.94
2019-03-13T08:55:26.953Z,61.43
2019-03-13T08:58:12.321Z,60.17
2019-03-13T09:01:12.077Z,61.96
2019-03-13T09:03:56.453Z,56.03
2019-03-13T09:06:51.691Z,60.99
2019-03-13T09:09:43.942Z,52.13
2019-03-13T09:12:45.311Z,52.20
2019-03-13T09:15:29.247Z,50.39
2019-03-13T09:18:27.823Z,50.95
2019-03-13T09:21:22.941Z,49.57
2019-03-13T09:24:02.646Z,49.02
2019-03-13T09:26:53.481Z,47.66
2019-03-13T09:29:49.794Z,47.63
2019-03-13T09:32:47.924Z,47.42
2019-03-13T09:35:42.769Z,48.14
2019-03-13T09:38:30.906Z,48.68
2019-03-13T09:41:32.093Z,49.47
2019-03-13T09:44:34.480Z,49.85
2019-03-13T09:47:41.897Z,49.52
2019-03-13T09:50:49.816Z,50.87
2019-03-13T09:53:33.509Z,50.61
2019-03-13T09:56:21.495Z,50.53
2019-03-13T09:59:19.800Z,51.11
2019-03-13T10:02:11.950Z,50.90
2019-03-13T10:05:22.292Z,50.92
2019-03-13T10:08:17.403Z,50.29
2019-03-13T10:11:25.433Z,49.14
2019-03-13T10:14:09.110Z,49.54
2019-03-13T10:17:11.048Z,46.97
2019-03-13T10:19:54.503Z,48.03
2019-03-13T10:22:46.813Z,47.59
2019-03-13T10:25:53.214Z,47.10
2019-03-13T10:28:45.274Z,45.21
2019-03-13T10:31:37.312Z,46.21
2019-03-13T10:34:29.408Z,47.03
2019-03-13T10:37:19.671Z,46.83
2019-03-13T10:40:11.022Z,46.72
2019-03-13T10:43:02.158Z,46.32
2019-03-13T10:45:48.320Z,46.65
2019-03-13T10:48:27.966Z,46.93
2019-03-13T10:51:17.720Z,47.50
2019-03-13T10:54:06.807Z,47.59
2019-03-13T10:56:57.430Z,45.56
2019-03-13T10:59:52.519Z,45.61
2019-03-13T11:02:39.514Z,45.34
2019-03-13T11:05:31.890Z,45.18
2019-03-13T11:08:10.830Z,44.48
2019-03-13T11:11:03.303Z,45.86
2019-03-13T11:14:14.896Z,45.33
2019-03-13T11:16:51.889Z,44.81
2019-03-13T11:19:31.899Z,45.05
2019-03-13T11:22:16.498Z,45.69
2019-03-13T11:25:03.674Z,45.94
2019-03-13T11:28:01.722Z,45.71
2019-03-13T11:30:43.766Z,45.70
2019-03-13T11:33:43.057Z,44.71
2019-03-13T11:36:29.199Z,45.46
2019-03-13T11:39:33.158Z,45.05
2019-03-13T11:42:35.270Z,45.57
2019-03-13T11:45:39.515Z,44.47
2019-03-13T11:48:30.265Z,44.24
2019-03-13T11:51:22.310Z,43.74
2019-03-13T11:54:04.234Z,43.32
2019-03-13T11:56:46.677Z,43.78
2019-03-13T11:59:38.061Z,42.13
2019-03-13T12:02:48.399Z,40.58
2019-03-13T12:05:37.675Z,39.58
2019-03-13T12:08:32.332Z,40.61
2019-03-13T12:11:23.234Z,40.20
2019-03-13T12:14:14.037Z,39.80
2019-03-13T12:16:55.685Z,39.44
2019-03-13T12:19:50.449Z,38.97
2019-03-13T12:22:39.096Z,38.74
2019-03-13T12:25:26.559Z,39.53
2019-03-13T12:28:27.349Z,40.18
2019-03-13T12:31:19.389Z,39.81
2019-03-13T12:34:12.443Z,39.19
2019-03-13T12:36:58.156Z,39.32
2019-03-13T12:39:53.006Z,40.12
2019-03-13T12:42:41.569Z,40.59
2019-03-13T12:45:34.863Z,41.48
2019-03-13T12:48:16.976Z,40.95
2019-03-13T12:51:24.716Z,39.73
2019-03-13T12:54:16.840Z,39.84
2019-03-13T12:57:15.468Z,39.07
2019-03-13T13:00:07.633Z,37.72
2019-03-13T13:03:10.736Z,38.54
2019-03-13T13:06:02.045Z,39.70
2019-03-13T13:08:59.991Z,38.76
2019-03-13T13:11:51.703Z,39.80
2019-03-13T13:14:42.545Z,40.63
2019-03-13T13:17:21.849Z,40.01
2019-03-13T13:19:55.453Z,39.80
2019-03-13T13:22:29.765Z,40.02
2019-03-13T13:25:03.356Z,39.36
2019-03-13T13:27:37.277Z,39.45
2019-03-13T13:30:12.087Z,39.19
2019-03-13T13:32:45.759Z,38.90
2019-03-13T13:35:19.250Z,37.18
2019-03-13T13:37:52.720Z,37.92
2019-03-13T13:40:26.096Z,38.03
2019-03-13T13:42:59.553Z,37.96
2019-03-13T13:46:15.557Z,38.19
2019-03-13T13:48:49.997Z,38.66
2019-03-13T13:51:23.483Z,37.68
2019-03-13T13:53:56.937Z,37.24
2019-03-13T13:56:30.348Z,38.50
2019-03-13T13:59:03.793Z,36.85
2019-03-13T14:01:37.465Z,37.29
2019-03-13T14:04:10.929Z,37.20
2019-03-13T14:06:44.126Z,36.45
2019-03-13T14:09:17.308Z,36.53
2019-03-13T14:11:52.324Z,37.00
2019-03-13T14:14:26.537Z,37.88
2019-03-13T14:16:59.708Z,37.23
2019-03-13T14:19:32.871Z,37.78
2019-03-13T14:22:06.014Z,37.00
2019-03-13T14:24:39.210Z,37.79
2019-03-13T14:27:14.942Z,38.40
2019-03-13T14:29:47.473Z,38.45
2019-03-13T14:32:20.619Z,38.60
2019-03-13T14:35:09.518Z,38.11
2019-03-13T14:38:13.757Z,38.33
2019-03-13T14:40:54.439Z,38.22
2019-03-13T14:43:40.420Z,38.71
2019-03-13T14:46:17.951Z,38.05
2019-03-13T14:48:51.138Z,38.87
2019-03-13T14:51:28.612Z,38.67
2019-03-13T14:54:07.188Z,38.81
2019-03-13T14:56:42.394Z,39.05
2019-03-13T14:59:15.557Z,39.44
2019-03-13T15:01:48.821Z,39.54
2019-03-13T15:04:23.575Z,38.99
2019-03-13T15:06:56.674Z,39.00
2019-03-13T15:09:29.882Z,38.87
2019-03-13T15:12:02.977Z,38.96
2019-03-13T15:14:36.208Z,39.13
2019-03-13T15:17:09.634Z,39.05
2019-03-13T15:19:42.836Z,39.14
2019-03-13T15:22:16.067Z,39.74
2019-03-13T15:24:49.373Z,40.60
2019-03-13T15:27:22.609Z,41.21
2019-03-13T15:29:55.780Z,40.43
2019-03-13T15:32:29.029Z,41.53
2019-03-13T15:35:02.191Z,41.94
2019-03-13T15:37:35.541Z,41.88
2019-03-13T15:40:10.627Z,40.84
2019-03-13T15:42:43.981Z,41.40
2019-03-13T15:45:19.294Z,41.09
2019-03-13T15:47:53.108Z,40.00
2019-03-13T15:50:26.478Z,40.73
2019-03-13T15:52:59.927Z,41.34
2019-03-13T15:55:33.185Z,41.87
2019-03-13T15:58:09.549Z,41.90
2019-03-13T16:00:42.981Z,45.95
2019-03-13T16:03:16.354Z,40.90
2019-03-13T16:05:49.753Z,41.82
2019-03-13T16:08:23.255Z,41.88
2019-03-13T16:10:56.616Z,42.51
2019-03-13T16:13:30.032Z,41.78
2019-03-13T16:16:03.391Z,41.89
2019-03-13T16:18:36.778Z,42.09
2019-03-13T16:21:10.008Z,42.12
2019-03-13T16:23:44.874Z,42.65
2019-03-13T16:26:18.581Z,42.60
2019-03-13T16:28:52.280Z,43.06
2019-03-13T16:31:26.033Z,43.71
2019-03-13T16:33:59.862Z,43.82
2019-03-13T16:36:33.902Z,43.75
2019-03-13T16:39:09.153Z,43.70
2019-03-13T16:41:43.759Z,43.94
2019-03-13T16:44:18.100Z,43.80
2019-03-13T16:46:52.645Z,44.17
2019-03-13T16:49:26.957Z,44.43
2019-03-13T16:52:04.754Z,44.67
2019-03-13T16:54:40.169Z,45.14
2019-03-13T16:57:15.123Z,44.70
2019-03-13T16:59:59.986Z,45.03
2019-03-13T17:02:24.481Z,45.24
2019-03-13T17:04:58.670Z,45.22
2019-03-13T17:07:32.632Z,45.41
2019-03-13T17:10:06.923Z,45.49
2019-03-13T17:12:40.922Z,45.03
2019-03-13T17:15:17.977Z,45.17
2019-03-13T17:17:51.847Z,45.20
2019-03-13T17:20:27.599Z,45.21
2019-03-13T17:23:01.602Z,45.55
2019-03-13T17:25:35.770Z,45.39
2019-03-13T17:28:09.984Z,45.50
2019-03-13T17:30:43.615Z,46.27
2019-03-13T17:33:17.028Z,47.26
2019-03-13T17:35:50.464Z,45.68
2019-03-13T17:38:23.940Z,45.78
2019-03-13T17:40:57.962Z,45.72
2019-03-13T17:43:39.042Z,45.95
2019-03-13T17:46:13.729Z,46.37
2019-03-13T17:48:47.237Z,46.24
2019-03-13T17:51:21.152Z,46.04
2019-03-13T17:53:54.616Z,46.50
2019-03-13T17:56:28.538Z,46.09
2019-03-13T17:59:02.510Z,46.44
2019-03-13T18:01:38.266Z,46.72
2019-03-13T18:04:12.365Z,47.23
2019-03-13T18:06:46.369Z,46.64
2019-03-13T18:09:19.805Z,47.03
2019-03-13T18:11:55.736Z,47.30
2019-03-13T18:14:32.071Z,47.29
2019-03-13T18:17:05.679Z,47.31
2019-03-13T18:19:39.579Z,47.46
2019-03-13T18:22:13.181Z,47.35
2019-03-13T18:24:52.075Z,47.88
2019-03-13T18:27:38.922Z,47.94
2019-03-13T18:30:21.422Z,47.63
2019-03-13T18:33:11.160Z,48.14
2019-03-13T18:35:47.742Z,48.16
2019-03-13T18:38:48.400Z,48.37
2019-03-13T18:41:23.551Z,48.48
2019-03-13T18:43:57.142Z,48.84
2019-03-13T18:46:30.706Z,48.92
2019-03-13T18:49:08.985Z,48.76
2019-03-13T18:51:42.986Z,48.96
2019-03-13T18:54:16.475Z,48.64
2019-03-13T18:56:49.912Z,48.72
2019-03-13T18:59:25.965Z,49.12
2019-03-13T19:01:59.355Z,48.84
2019-03-13T19:04:32.883Z,48.48
2019-03-13T19:07:06.349Z,48.71
2019-03-13T19:09:39.998Z,48.28
2019-03-13T19:12:14.237Z,48.52
2019-03-13T19:14:48.796Z,48.39
2019-03-13T19:17:22.582Z,48.54
2019-03-13T19:19:56.019Z,48.51
2019-03-13T19:22:29.452Z,48.41
2019-03-13T19:25:03.014Z,48.79
2019-03-13T19:27:36.492Z,48.65
2019-03-13T19:30:15.769Z,48.53
2019-03-13T19:32:50.231Z,48.71
2019-03-13T19:35:23.687Z,49.08
2019-03-13T19:37:58.163Z,49.00
2019-03-13T19:40:31.613Z,48.96
2019-03-13T19:43:05.027Z,49.35
2019-03-13T19:45:43.246Z,49.30
2019-03-13T19:48:18.770Z,49.11
2019-03-13T19:50:56.394Z,49.16
2019-03-13T19:53:34.561Z,49.24
2019-03-13T19:56:12.189Z,49.30
2019-03-13T19:58:45.704Z,49.40
2019-03-13T20:01:19.087Z,49.07
2019-03-13T20:03:55.324Z,49.10
2019-03-13T20:06:27.629Z,48.95
2019-03-13T20:09:01.254Z,48.71
2019-03-13T20:11:36.297Z,48.59
2019-03-13T20:14:09.854Z,48.80
2019-03-13T20:16:46.447Z,48.42
2019-03-13T20:19:18.737Z,48.33
2019-03-13T20:21:52.181Z,48.33
2019-03-13T20:24:25.539Z,47.93
2019-03-13T20:26:59.027Z,47.81
2019-03-13T20:29:32.543Z,47.86
2019-03-13T20:32:06.016Z,47.41
2019-03-13T20:34:39.406Z,47.85
2019-03-13T20:37:13.206Z,47.91
2019-03-13T20:39:46.677Z,47.36
2019-03-13T20:42:20.143Z,47.53
2019-03-13T20:44:53.668Z,47.39
2019-03-13T20:47:31.011Z,47.34
2019-03-13T20:50:04.438Z,47.36
2019-03-13T20:52:38.162Z,47.65
2019-03-13T20:55:13.046Z,47.44
2019-03-13T20:57:46.771Z,47.47
2019-03-13T21:00:23.303Z,47.84
2019-03-13T21:02:56.683Z,47.85
2019-03-13T21:05:30.107Z,47.81
2019-03-13T21:08:03.441Z,47.70
2019-03-13T21:10:36.945Z,47.68
2019-03-13T21:13:10.241Z,47.93
2019-03-13T21:15:43.995Z,48.08
2019-03-13T21:18:17.470Z,48.21
2019-03-13T21:20:50.829Z,48.21
2019-03-13T21:23:24.191Z,48.16
2019-03-13T21:25:57.521Z,48.22
2019-03-13T21:28:30.842Z,48.51
2019-03-13T21:31:04.228Z,48.41
2019-03-13T21:33:38.038Z,48.41
2019-03-13T21:36:11.466Z,48.49
2019-03-13T21:38:44.892Z,48.45
2019-03-13T21:41:18.182Z,48.46
2019-03-13T21:43:51.723Z,48.39
2019-03-13T21:46:25.825Z,48.55
2019-03-13T21:48:59.255Z,48.44
2019-03-13T21:51:32.535Z,48.45
2019-03-13T21:54:05.843Z,48.60
2019-03-13T21:56:39.195Z,48.33
2019-03-13T21:59:12.605Z,48.17
2019-03-13T22:01:46.073Z,48.73
2019-03-13T22:04:24.007Z,48.59
2019-03-13T22:06:55.389Z,48.59
2019-03-13T22:09:29.001Z,48.80
2019-03-13T22:12:02.533Z,48.22
2019-03-13T22:14:38.405Z,47.81
2019-03-13T22:17:11.185Z,47.76
2019-03-13T22:19:44.719Z,47.73
2019-03-13T22:22:18.614Z,47.33
2019-03-13T22:24:53.056Z,47.62
2019-03-13T22:27:26.514Z,47.36
2019-03-13T22:30:00.386Z,47.53
2019-03-13T22:32:37.654Z,48.00
2019-03-13T22:35:11.167Z,47.77
2019-03-13T22:37:44.647Z,47.98
2019-03-13T22:40:18.423Z,48.31
2019-03-13T22:42:52.701Z,48.34
2019-03-13T22:45:26.171Z,48.04
2019-03-13T22:47:59.615Z,48.38
2019-03-13T22:50:33.228Z,48.25
2019-03-13T22:53:06.744Z,48.38
2019-03-13T22:55:41.155Z,48.64
2019-03-13T22:58:14.956Z,48.81
2019-03-13T23:01:22.612Z,49.16
2019-03-13T23:03:56.417Z,49.11
2019-03-13T23:06:30.042Z,49.09
2019-03-13T23:09:03.195Z,48.84
2019-03-13T23:11:43.114Z,48.68
2019-03-13T23:14:16.284Z,48.64
2019-03-13T23:16:49.457Z,48.74
2019-03-13T23:19:22.655Z,48.86
2019-03-13T23:21:55.828Z,49.20
2019-03-13T23:24:28.999Z,49.06
2019-03-13T23:27:02.177Z,49.29
2019-03-13T23:29:35.834Z,49.31
2019-03-13T23:32:08.983Z,49.56
2019-03-13T23:34:42.141Z,49.38
2019-03-13T23:37:15.331Z,49.67
2019-03-13T23:39:48.915Z,49.75
2019-03-13T23:42:23.224Z,49.99
2019-03-13T23:44:56.385Z,50.30
2019-03-13T23:47:29.514Z,49.93
2019-03-13T23:50:02.646Z,50.42
2019-03-13T23:52:35.807Z,50.31
2019-03-13T23:55:08.976Z,50.50
2019-03-13T23:57:42.122Z,50.91
